Time;durP1;ratioP1;P1;durP2;ratioP2;P2;SDS_P1;SDS_P2;PMS_P1;PMS_P2;Temp;Humidity;BMP_temperature;BMP_pressure;BME280_temperature;BME280_humidity;BME280_pressure;Samples;Min_cycle;Max_cycle;Signal;HPM_P1;HPM_P2
2022/08/16 08:01:35;;;;;;;15.80;14.30;;;;;;;22.17;65.91;100596.59;5322552;27;20388;-73
2022/08/16 08:04:09;;;;;;;16.17;14.57;;;;;;;22.19;65.72;100589.41;5322514;28;20063;-72
2022/08/16 08:06:40;;;;;;;14.50;13.13;;;;;;;22.34;65.09;100594.13;5322182;28;20020;-73
2022/08/16 08:09:12;;;;;;;15.90;13.65;;;;;;;22.45;64.70;100599.97;5321234;28;20035;-72
2022/08/16 08:11:44;;;;;;;14.75;13.45;;;;;;;22.50;63.23;100594.00;5306794;28;20021;-73
2022/08/16 08:14:15;;;;;;;12.85;11.52;;;;;;;22.67;62.90;100603.13;5300363;28;20032;-72
2022/08/16 08:16:47;;;;;;;16.63;13.15;;;;;;;22.69;62.85;100609.22;5301445;28;20016;-73
2022/08/16 08:19:19;;;;;;;13.95;12.52;;;;;;;22.96;62.30;100601.59;5299948;28;20036;-71
2022/08/16 08:21:53;;;;;;;15.73;14.20;;;;;;;22.87;62.45;100604.69;5315728;28;20016;-72
2022/08/16 08:24:24;;;;;;;16.75;13.15;;;;;;;22.93;62.12;100611.66;5321576;28;20032;-72
2022/08/16 08:26:57;;;;;;;14.52;13.13;;;;;;;23.00;62.06;100608.97;5319075;28;20536;-72
2022/08/16 08:29:30;;;;;;;14.00;12.55;;;;;;;23.17;61.44;100606.81;5321116;28;20036;-74
2022/08/16 08:32:01;;;;;;;14.63;12.88;;;;;;;23.16;61.37;100610.81;5321952;28;20024;-74
2022/08/16 08:34:33;;;;;;;27.50;24.67;;;;;;;23.27;60.48;100611.78;5306795;28;20058;-75
2022/08/16 08:37:05;;;;;;;15.80;13.35;;;;;;;23.29;60.16;100608.56;5300614;28;20090;-76
2022/08/16 08:39:37;;;;;;;12.68;11.48;;;;;;;23.35;59.85;100596.56;5300898;28;20382;-76
2022/08/16 08:42:08;;;;;;;12.10;10.85;;;;;;;23.44;59.40;100608.41;5304836;28;20034;-74
2022/08/16 08:44:40;;;;;;;13.80;12.35;;;;;;;23.43;59.01;100620.09;5314821;28;20028;-71
2022/08/16 08:47:13;;;;;;;12.40;11.23;;;;;;;23.50;58.84;100608.06;5299142;28;20028;-72
2022/08/16 08:49:44;;;;;;;13.75;11.55;;;;;;;23.60;58.20;100613.06;5299939;28;20031;-71
2022/08/16 08:52:15;;;;;;;12.00;10.88;;;;;;;23.62;57.80;100610.63;5300599;28;20024;-72
2022/08/16 08:54:47;;;;;;;14.02;10.25;;;;;;;23.69;56.33;100616.41;5305981;28;20016;-71
2022/08/16 08:57:19;;;;;;;11.93;10.82;;;;;;;23.72;56.06;100614.81;5321420;28;20459;-71
2022/08/16 08:59:50;;;;;;;11.55;10.35;;;;;;;23.78;55.92;100614.13;5320100;28;20044;-71
2022/08/16 09:02:21;;;;;;;11.18;10.15;;;;;;;23.82;55.80;100625.50;5308376;28;20074;-71
2022/08/16 09:04:53;;;;;;;11.93;9.93;;;;;;;23.91;55.72;100625.22;5300026;28;20052;-72
2022/08/16 09:07:24;;;;;;;19.55;16.17;;;;;;;24.03;55.52;100619.25;5281644;28;20054;-72
2022/08/16 09:09:55;;;;;;;10.38;9.23;;;;;;;24.13;54.92;100624.22;5298659;28;20047;-72
2022/08/16 09:12:27;;;;;;;12.55;9.90;;;;;;;24.08;53.92;100627.41;5288544;28;20037;-71
2022/08/16 09:14:59;;;;;;;10.57;9.57;;;;;;;24.00;53.54;100625.69;5290767;28;20086;-72
2022/08/16 09:17:30;;;;;;;9.98;8.98;;;;;;;24.02;53.87;100632.63;5291104;28;20022;-73
2022/08/16 09:20:04;;;;;;;9.95;9.05;;;;;;;24.06;53.75;100638.34;5288637;28;20538;-71
2022/08/16 09:22:36;;;;;;;10.98;9.90;;;;;;;24.08;53.21;100639.56;5284915;28;20455;-72
2022/08/16 09:25:08;;;;;;;10.10;8.02;;;;;;;24.14;53.46;100631.53;5285660;28;20108;-72
2022/08/16 09:27:39;;;;;;;11.25;8.15;;;;;;;24.28;53.40;100637.34;5285644;28;20029;-71
2022/08/16 09:30:11;;;;;;;9.52;8.55;;;;;;;24.41;52.89;100631.41;5295021;28;20023;-72
2022/08/16 09:32:42;;;;;;;9.27;8.38;;;;;;;24.56;52.49;100635.22;5305981;28;20028;-72
2022/08/16 09:35:14;;;;;;;7.50;6.80;;;;;;;24.79;51.76;100629.38;5303207;28;20031;-73
2022/08/16 09:37:45;;;;;;;11.38;8.10;;;;;;;24.69;50.66;100637.38;5284878;28;20025;-72
2022/08/16 09:40:17;;;;;;;8.75;6.35;;;;;;;24.84;49.76;100635.47;5285345;28;20032;-71
2022/08/16 09:42:49;;;;;;;9.02;8.15;;;;;;;24.79;49.15;100644.34;5295580;28;20030;-71
2022/08/16 09:45:20;;;;;;;13.07;7.43;;;;;;;24.97;49.28;100636.00;5305412;28;20055;-72
2022/08/16 09:47:53;;;;;;;7.25;6.50;;;;;;;25.04;48.96;100636.06;5306212;28;20098;-71
2022/08/16 09:50:28;;;;;;;7.72;6.75;;;;;;;25.15;48.54;100631.25;5304061;28;20024;-72
2022/08/16 09:52:59;;;;;;;6.68;6.07;;;;;;;25.20;46.97;100637.81;5296544;28;20391;-72
2022/08/16 09:55:30;;;;;;;8.07;6.18;;;;;;;25.28;46.86;100637.44;5284697;28;20035;-71
2022/08/16 09:58:03;;;;;;;5.78;4.82;;;;;;;25.32;45.85;100632.63;5284081;28;20033;-72
2022/08/16 10:00:34;;;;;;;12.00;5.45;;;;;;;25.35;45.77;100637.50;5284305;28;20055;-72
2022/08/16 10:03:05;;;;;;;19.75;17.80;;;;;;;25.55;46.17;100638.03;5284889;28;20459;-71
2022/08/16 10:05:37;;;;;;;37.75;34.30;;;;;;;25.45;45.87;100635.94;5283765;28;20024;-72
2022/08/16 10:08:09;;;;;;;8.43;6.18;;;;;;;25.55;45.83;100640.88;5285605;28;20158;-72
2022/08/16 10:10:40;;;;;;;9.98;6.50;;;;;;;25.52;46.61;100638.03;5298847;28;20035;-73
2022/08/16 10:13:12;;;;;;;7.05;5.50;;;;;;;25.59;46.40;100638.88;5304927;28;20016;-72
2022/08/16 10:15:45;;;;;;;6.97;5.88;;;;;;;25.65;46.33;100644.19;5294054;28;20024;-73
2022/08/16 10:18:17;;;;;;;8.60;5.85;;;;;;;25.64;46.17;100636.84;5294352;28;20548;-73
2022/08/16 10:20:48;;;;;;;8.43;5.28;;;;;;;25.80;45.99;100640.19;5304339;28;20035;-73
2022/08/16 10:23:20;;;;;;;9.07;6.10;;;;;;;25.89;45.71;100643.50;5304359;28;20021;-74
2022/08/16 10:25:51;;;;;;;5.72;5.18;;;;;;;25.90;43.39;100650.81;5284451;28;20503;-74
2022/08/16 10:28:25;;;;;;;7.00;5.10;;;;;;;25.91;43.68;100646.75;5304717;28;20016;-72
2022/08/16 10:30:58;;;;;;;6.65;5.05;;;;;;;26.01;43.36;100645.97;5304924;28;20032;-73
2022/08/16 10:33:32;;;;;;;6.63;5.03;;;;;;;25.97;43.03;100647.19;5304253;28;20019;-72
2022/08/16 10:36:08;;;;;;;7.25;5.32;;;;;;;25.97;43.25;100644.34;5292632;28;20017;-72
2022/08/16 10:38:41;;;;;;;5.57;5.03;;;;;;;26.29;43.53;100646.47;5283595;28;20035;-74
2022/08/16 10:41:13;;;;;;;6.38;5.28;;;;;;;26.22;43.31;100638.75;5288372;28;20054;-72
2022/08/16 10:43:44;;;;;;;5.53;5.03;;;;;;;26.41;42.69;100640.41;5297597;28;20025;-72
2022/08/16 10:46:16;;;;;;;6.43;4.95;;;;;;;26.50;42.92;100642.84;5283517;28;20383;-73
2022/08/16 10:48:47;;;;;;;6.07;4.55;;;;;;;26.49;41.45;100642.06;5282833;28;20056;-73
2022/08/16 10:51:19;;;;;;;6.47;5.03;;;;;;;26.75;41.18;100640.88;5283797;28;20081;-74
2022/08/16 10:53:50;;;;;;;5.32;4.22;;;;;;;26.93;40.75;100635.19;5282955;28;20108;-72
2022/08/16 10:56:23;;;;;;;4.90;4.50;;;;;;;26.91;40.97;100645.34;5283685;28;20034;-73
2022/08/16 10:58:56;;;;;;;7.43;4.90;;;;;;;26.91;41.34;100634.78;5284093;28;20432;-73
2022/08/16 11:01:27;;;;;;;7.32;5.60;;;;;;;26.98;40.77;100636.81;5295287;28;20071;-71
2022/08/16 11:04:00;;;;;;;10.43;7.05;;;;;;;26.94;41.48;100647.38;5304563;28;20062;-74
2022/08/16 11:06:31;;;;;;;13.60;12.30;;;;;;;26.99;41.11;100646.97;5303139;28;20023;-72
2022/08/16 11:09:02;;;;;;;5.55;4.20;;;;;;;27.12;40.27;100645.34;5282649;28;20025;-72
2022/08/16 11:11:34;;;;;;;7.13;4.85;;;;;;;27.16;40.33;100657.53;5286897;28;20031;-71
2022/08/16 11:14:05;;;;;;;7.68;5.00;;;;;;;27.11;40.39;100649.41;5304888;28;20532;-71
2022/08/16 11:16:37;;;;;;;5.53;4.07;;;;;;;27.16;39.50;100657.53;5302482;28;20032;-73
2022/08/16 11:19:10;;;;;;;5.28;4.05;;;;;;;27.03;40.13;100657.16;5303597;28;20067;-72
2022/08/16 11:21:42;;;;;;;12.32;10.88;;;;;;;26.95;40.33;100654.72;5296210;28;20056;-71
2022/08/16 11:24:14;;;;;;;7.55;5.18;;;;;;;26.89;40.36;100660.81;5283113;28;20024;-72
2022/08/16 11:26:45;;;;;;;7.55;5.38;;;;;;;26.91;41.16;100656.75;5283326;28;20029;-71
2022/08/16 11:29:16;;;;;;;7.15;4.90;;;;;;;27.13;40.96;100657.56;5282356;28;20059;-71
2022/08/16 11:31:48;;;;;;;6.65;4.57;;;;;;;26.98;40.34;100668.13;5283689;28;20112;-71
2022/08/16 11:34:20;;;;;;;8.32;4.60;;;;;;;26.99;40.01;100664.06;5286619;28;20024;-70
2022/08/16 11:36:51;;;;;;;7.30;5.18;;;;;;;26.92;39.80;100664.03;5303385;28;20020;-71
2022/08/16 11:39:22;;;;;;;4.88;4.47;;;;;;;26.77;39.73;100669.75;5303648;28;20020;-71
2022/08/16 11:41:54;;;;;;;4.50;4.03;;;;;;;26.73;39.68;100677.44;5303676;28;20463;-71
2022/08/16 11:44:26;;;;;;;24.23;22.10;;;;;;;26.72;39.08;100684.38;5303070;28;20360;-71
2022/08/16 11:46:58;;;;;;;12.25;11.05;;;;;;;26.71;39.38;100676.22;5303317;28;20016;-72
2022/08/16 11:49:29;;;;;;;19.08;4.50;;;;;;;26.71;38.89;100677.03;5295717;28;20036;-71
2022/08/16 11:52:01;;;;;;;8.85;4.00;;;;;;;26.66;39.04;100681.13;5291284;28;20081;-72
2022/08/16 11:54:33;;;;;;;6.85;4.03;;;;;;;26.66;38.85;100689.66;5303772;28;20474;-72
2022/08/16 11:57:04;;;;;;;3.85;3.55;;;;;;;26.64;38.48;100686.38;5291653;28;20569;-73
2022/08/16 11:59:37;;;;;;;45.50;41.10;;;;;;;26.74;38.34;100692.47;5282612;28;20174;-73
2022/08/16 12:02:09;;;;;;;10.05;8.93;;;;;;;26.85;38.31;100682.75;5282932;28;20476;-73
2022/08/16 12:04:43;;;;;;;5.30;4.07;;;;;;;27.00;38.35;100677.88;5282029;28;20064;-72
2022/08/16 12:07:15;;;;;;;4.93;4.18;;;;;;;27.18;38.53;100666.53;5283433;28;20025;-73
2022/08/16 12:09:47;;;;;;;7.47;4.45;;;;;;;27.40;37.99;100683.56;5297833;28;20024;-72
2022/08/16 12:12:20;;;;;;;4.35;3.47;;;;;;;27.44;37.52;100681.53;5302912;28;20035;-71
2022/08/16 12:14:51;;;;;;;6.85;4.00;;;;;;;27.57;37.41;100673.38;5303741;28;20360;-73
2022/08/16 12:17:27;;;;;;;7.15;4.22;;;;;;;27.60;37.81;100676.19;5303274;28;20034;-74
2022/08/16 12:20:00;;;;;;;5.15;4.47;;;;;;;27.77;37.39;100683.06;5302686;28;20032;-72
2022/08/16 12:22:31;;;;;;;4.70;3.92;;;;;;;27.85;37.27;100678.19;5303200;28;20474;-72
2022/08/16 12:25:11;;;;;;;5.32;3.78;;;;;;;27.93;36.83;100674.09;5282934;28;20021;-73
2022/08/16 12:27:45;;;;;;;5.20;4.20;;;;;;;28.04;36.89;100683.41;5303604;28;20020;-74
2022/08/16 12:30:22;;;;;;;5.10;3.72;;;;;;;28.04;35.86;100680.53;5303226;28;20108;-73
2022/08/16 12:32:58;;;;;;;4.32;3.92;;;;;;;28.19;36.12;100684.97;5303016;28;20021;-73
2022/08/16 12:35:31;;;;;;;4.57;3.80;;;;;;;28.15;36.20;100689.88;5303464;28;20028;-73
2022/08/16 12:38:04;;;;;;;7.00;4.05;;;;;;;28.40;35.76;100697.47;5303482;28;20106;-71
2022/08/16 12:40:38;;;;;;;5.47;3.60;;;;;;;28.30;35.34;100687.78;5301601;28;20036;-70
2022/08/16 12:43:12;;;;;;;5.22;3.55;;;;;;;28.48;34.77;100687.72;5290308;28;20086;-73
2022/08/16 12:45:49;;;;;;;5.63;3.85;;;;;;;28.56;34.08;100685.63;5282850;28;20020;-74
2022/08/16 12:51:20;;;;;;;5.55;3.80;;;;;;;28.69;34.04;100694.50;5286898;28;20048;-73
2022/08/16 12:53:55;;;;;;;4.65;4.13;;;;;;;28.48;33.76;100690.56;5285478;28;20041;-73
2022/08/16 12:56:30;;;;;;;5.00;3.53;;;;;;;28.52;34.43;100691.34;5286139;28;20035;-73
2022/08/16 12:59:03;;;;;;;;;;;;;;;28.73;34.79;100686.72;5305495;28;20032;-73
2022/08/16 13:01:35;;;;;;;4.15;3.58;;;;;;;28.68;34.08;100687.97;5285354;28;20283;-73
2022/08/16 13:04:07;;;;;;;4.28;3.60;;;;;;;28.82;33.72;100681.34;5286252;28;20020;-72
2022/08/16 13:06:40;;;;;;;6.65;5.25;;;;;;;28.93;33.84;100686.97;5285970;28;20025;-73
2022/08/16 13:09:19;;;;;;;5.60;3.40;;;;;;;28.92;33.60;100683.31;5283892;28;20372;-73
2022/08/16 13:12:07;;;;;;;5.38;3.35;;;;;;;29.16;33.74;100677.84;5285851;28;20025;-73
2022/08/16 13:14:41;;;;;;;4.90;3.60;;;;;;;29.24;33.71;100673.69;5287707;28;20114;-73
2022/08/16 13:17:15;;;;;;;5.93;3.53;;;;;;;29.41;33.92;100677.59;5295841;28;20395;-73
2022/08/16 13:19:49;;;;;;;8.45;3.90;;;;;;;29.50;33.20;100677.91;5285230;28;20108;-75
2022/08/16 13:22:21;;;;;;;4.95;3.88;;;;;;;29.58;33.63;100667.22;5285055;28;20067;-74
2022/08/16 13:24:53;;;;;;;3.60;3.30;;;;;;;29.54;33.55;100675.03;5289385;28;20016;-75
2022/08/16 13:27:24;;;;;;;4.53;3.60;;;;;;;29.46;33.56;100671.44;5306526;28;20031;-73
2022/08/16 13:29:55;;;;;;;5.22;3.80;;;;;;;29.46;33.15;100669.38;5305730;28;20463;-71
2022/08/16 13:32:27;;;;;;;6.25;5.75;;;;;;;29.37;33.79;100671.91;5291758;28;20028;-72
2022/08/16 13:34:58;;;;;;;4.13;3.83;;;;;;;29.35;33.88;100673.56;5285771;28;20395;-72
2022/08/16 13:37:29;;;;;;;6.30;4.05;;;;;;;29.26;33.81;100674.88;5284372;28;20024;-72
2022/08/16 13:40:03;;;;;;;6.20;3.95;;;;;;;29.17;33.75;100671.72;5285085;28;20356;-72
2022/08/16 13:42:34;;;;;;;6.15;3.80;;;;;;;29.03;34.04;100678.31;5284155;28;20107;-72
2022/08/16 13:45:07;;;;;;;3.92;3.60;;;;;;;28.76;34.34;100674.47;5285252;28;20036;-71
2022/08/16 13:47:38;;;;;;;12.30;9.93;;;;;;;28.74;34.79;100674.88;5285941;28;20224;-71
2022/08/16 13:50:11;;;;;;;5.65;4.28;;;;;;;28.73;34.86;100681.00;5286153;28;20025;-72
2022/08/16 13:52:43;;;;;;;5.13;4.60;;;;;;;28.92;34.69;100679.66;5306244;28;20150;-72
2022/08/16 13:55:14;;;;;;;4.47;3.53;;;;;;;29.06;34.48;100678.75;5306061;28;20095;-72
2022/08/16 13:57:45;;;;;;;5.05;3.83;;;;;;;29.14;34.20;100674.59;5304999;28;20028;-73
2022/08/16 14:00:17;;;;;;;4.80;3.90;;;;;;;29.06;33.65;100682.41;5305570;28;20051;-72
2022/08/16 14:02:49;;;;;;;4.00;3.60;;;;;;;29.11;33.73;100684.00;5306245;28;20035;-72
2022/08/16 14:05:20;;;;;;;3.80;2.92;;;;;;;29.05;34.15;100680.78;5304463;28;20016;-72
2022/08/16 14:07:51;;;;;;;8.55;6.30;;;;;;;28.95;34.12;100690.22;5297840;28;20052;-72
2022/08/16 14:10:23;;;;;;;4.60;3.80;;;;;;;28.96;34.34;100675.50;5284452;28;20404;-73
2022/08/16 14:12:54;;;;;;;5.72;3.85;;;;;;;29.02;34.18;100682.41;5284069;28;20078;-73
2022/08/16 14:15:25;;;;;;;3.78;3.47;;;;;;;29.08;34.24;100674.25;5292394;28;20025;-72
2022/08/16 14:17:56;;;;;;;4.18;3.78;;;;;;;29.06;33.66;100679.56;5285710;28;20055;-73
2022/08/16 14:20:28;;;;;;;6.40;3.75;;;;;;;29.18;34.43;100681.09;5284438;28;20058;-72
2022/08/16 14:22:59;;;;;;;5.72;3.92;;;;;;;29.17;33.85;100679.44;5293121;28;20107;-72
2022/08/16 14:25:31;;;;;;;4.50;3.45;;;;;;;29.11;34.21;100675.44;5290759;28;20017;-73
2022/08/16 14:28:05;;;;;;;4.32;3.85;;;;;;;29.10;34.39;100679.53;5284335;28;20040;-73
2022/08/16 14:30:37;;;;;;;4.93;3.43;;;;;;;28.97;34.08;100677.16;5284152;28;20032;-72
2022/08/16 14:33:09;;;;;;;4.10;3.60;;;;;;;29.16;33.86;100684.34;5283594;28;20412;-73
2022/08/16 14:35:40;;;;;;;7.47;4.20;;;;;;;29.22;33.66;100676.13;5284118;28;20024;-74
2022/08/16 14:38:11;;;;;;;5.05;3.47;;;;;;;29.34;33.74;100678.47;5284567;28;20380;-75
2022/08/16 14:40:43;;;;;;;4.18;3.78;;;;;;;29.23;33.67;100672.88;5283773;28;20021;-73
2022/08/16 14:43:14;;;;;;;4.80;3.85;;;;;;;29.25;34.15;100676.13;5303881;28;20043;-73
2022/08/16 14:45:46;;;;;;;4.78;3.88;;;;;;;29.42;34.04;100680.03;5304040;28;20027;-73
2022/08/16 14:48:18;;;;;;;4.28;3.70;;;;;;;29.44;33.87;100682.47;5287907;28;20135;-72
2022/08/16 14:50:50;;;;;;;7.70;4.20;;;;;;;29.44;34.06;100680.41;5283767;28;20428;-74
2022/08/16 14:53:23;;;;;;;4.97;4.47;;;;;;;29.37;34.15;100682.53;5283051;28;20070;-73
2022/08/16 14:55:54;;;;;;;5.90;3.63;;;;;;;29.36;34.24;100678.88;5284504;28;20058;-73
2022/08/16 14:58:26;;;;;;;4.38;3.97;;;;;;;29.25;34.01;100675.31;5287894;28;20066;-72
2022/08/16 15:01:00;;;;;;;4.43;3.80;;;;;;;29.30;34.50;100677.72;5303251;28;20047;-73
2022/08/16 15:03:31;;;;;;;5.35;3.92;;;;;;;29.33;34.36;100676.88;5304596;28;20084;-72
2022/08/16 15:06:03;;;;;;;11.90;4.00;;;;;;;29.24;34.33;100676.53;5304623;28;20412;-73
2022/08/16 15:08:34;;;;;;;5.90;4.18;;;;;;;29.30;34.13;100677.72;5303549;28;20061;-73
2022/08/16 15:11:06;;;;;;;5.00;3.95;;;;;;;29.18;34.37;100669.66;5304114;28;20526;-73
2022/08/16 15:13:39;;;;;;;5.45;4.38;;;;;;;29.34;34.90;100675.63;5301804;28;20023;-73
2022/08/16 15:16:11;;;;;;;6.90;4.18;;;;;;;29.35;34.56;100674.41;5287839;28;20020;-74
2022/08/16 15:18:42;;;;;;;7.90;4.25;;;;;;;29.40;34.89;100676.81;5304312;28;20020;-72
2022/08/16 15:21:14;;;;;;;10.30;9.27;;;;;;;29.16;34.71;100672.94;5303370;28;20059;-72
2022/08/16 15:23:46;;;;;;;6.20;4.45;;;;;;;29.00;34.96;100675.50;5303459;28;20480;-72
2022/08/16 15:26:18;;;;;;;5.90;3.92;;;;;;;29.00;35.16;100673.47;5282719;28;20016;-72
2022/08/16 15:28:50;;;;;;;5.43;4.18;;;;;;;29.03;35.22;100668.94;5282612;28;20383;-72
2022/08/16 15:31:25;;;;;;;4.05;3.65;;;;;;;28.81;35.11;100676.88;5297423;28;20142;-74
2022/08/16 15:33:56;;;;;;;;;;;;;;;28.99;34.91;100674.69;5287083;28;20463;-73
2022/08/16 15:36:27;;;;;;;6.33;3.87;;;;;;;28.88;34.74;100676.81;5282486;28;19912;-73
2022/08/16 15:38:59;;;;;;;7.72;4.53;;;;;;;28.79;34.95;100682.19;5283095;28;20105;-74
2022/08/16 15:41:39;;;;;;;7.60;5.05;;;;;;;28.67;35.52;100674.13;5282764;28;20471;-74
2022/08/16 15:44:14;;;;;;;4.93;3.92;;;;;;;28.57;35.87;100682.34;5282004;28;20162;-74
2022/08/16 15:46:46;;;;;;;7.13;4.20;;;;;;;28.53;35.76;100681.56;5283651;28;20483;-74
2022/08/16 15:49:17;;;;;;;6.10;4.40;;;;;;;28.52;35.82;100688.47;5284884;28;20122;-73
2022/08/16 15:51:48;;;;;;;6.18;4.38;;;;;;;28.53;35.91;100692.97;5303557;28;20035;-74
2022/08/16 15:54:20;;;;;;;4.63;3.97;;;;;;;28.55;35.87;100693.34;5304117;28;20036;-72
2022/08/16 15:56:53;;;;;;;5.05;4.20;;;;;;;28.58;36.64;100683.97;5303058;28;20024;-73
2022/08/16 15:59:26;;;;;;;31.58;28.42;;;;;;;28.46;36.19;100693.00;5303604;28;20522;-74
2022/08/16 16:01:58;;;;;;;7.25;5.20;;;;;;;28.36;36.82;100696.69;5303762;28;20036;-75
2022/08/16 16:04:31;;;;;;;5.22;4.30;;;;;;;28.42;36.61;100695.03;5302206;28;20043;-74
2022/08/16 16:07:02;;;;;;;5.85;4.10;;;;;;;28.45;36.01;100685.66;5293905;28;20030;-73
2022/08/16 16:09:34;;;;;;;9.32;4.72;;;;;;;28.58;36.24;100695.38;5282949;28;20024;-73
2022/08/16 16:12:06;;;;;;;6.65;3.97;;;;;;;28.63;36.05;100696.97;5282213;28;20093;-72
2022/08/16 16:14:37;;;;;;;6.03;4.35;;;;;;;28.61;36.09;100690.88;5290572;28;20020;-72
2022/08/16 16:17:09;;;;;;;6.25;4.72;;;;;;;28.57;36.57;100699.44;5302940;28;20031;-71
2022/08/16 16:19:41;;;;;;;6.13;4.88;;;;;;;28.70;36.28;100696.13;5303354;28;20031;-71
2022/08/16 16:22:12;;;;;;;5.03;3.88;;;;;;;28.71;36.40;100703.44;5291129;28;20017;-72
2022/08/16 16:24:45;;;;;;;8.48;4.22;;;;;;;28.59;36.95;100697.00;5301059;28;20065;-70
2022/08/16 16:27:17;;;;;;;6.05;4.45;;;;;;;28.54;37.12;100702.34;5307704;28;20020;-72
2022/08/16 16:29:48;;;;;;;7.65;4.00;;;;;;;28.46;37.14;100698.72;5307672;28;20035;-72
2022/08/16 16:32:19;;;;;;;5.18;4.40;;;;;;;28.45;36.98;100699.91;5306840;28;20120;-72
2022/08/16 16:34:51;;;;;;;5.10;4.43;;;;;;;28.48;36.97;100693.41;5307983;28;20020;-71
2022/08/16 16:37:22;;;;;;;8.30;4.30;;;;;;;28.57;37.09;100688.03;5307513;28;20027;-72
2022/08/16 16:39:56;;;;;;;6.63;4.05;;;;;;;28.51;37.50;100695.44;5305514;28;20493;-71
2022/08/16 16:42:28;;;;;;;8.43;4.53;;;;;;;28.47;37.68;100688.91;5286641;28;20483;-72
2022/08/16 16:45:03;;;;;;;4.80;3.85;;;;;;;28.33;37.91;100688.97;5285882;28;20033;-72
2022/08/16 16:47:35;;;;;;;6.72;4.30;;;;;;;28.37;38.06;100689.75;5285390;28;20485;-72
2022/08/16 16:50:08;;;;;;;16.02;14.55;;;;;;;28.43;38.06;100688.13;5285966;28;20056;-72
2022/08/16 16:52:40;;;;;;;5.28;4.47;;;;;;;28.39;38.07;100684.47;5285086;28;20024;-72
2022/08/16 16:55:12;;;;;;;5.28;3.92;;;;;;;28.57;37.60;100679.47;5286751;28;20032;-72
2022/08/16 17:00:34;;;;;;;6.00;5.50;;;;;;;28.59;37.04;100688.44;5306890;28;20093;-72
2022/08/16 17:03:07;;;;;;;7.50;4.40;;;;;;;28.64;37.12;100686.38;5307007;28;20020;-72
2022/08/16 17:05:38;;;;;;;4.90;3.70;;;;;;;28.54;37.43;100686.03;5296474;28;20464;-72
2022/08/16 17:08:10;;;;;;;5.25;4.38;;;;;;;28.53;37.57;100692.97;5285138;28;20023;-74
2022/08/16 17:10:41;;;;;;;8.50;3.83;;;;;;;28.45;37.64;100691.38;5286073;28;20032;-71
2022/08/16 17:13:12;;;;;;;6.68;3.90;;;;;;;28.31;37.17;100685.72;5292691;28;20020;-72
2022/08/16 17:15:44;;;;;;;6.13;3.53;;;;;;;28.28;37.76;100690.22;5290463;28;20032;-72
2022/08/16 17:18:16;;;;;;;3.72;3.35;;;;;;;28.05;37.51;100690.75;5285952;28;20036;-71
2022/08/16 17:20:49;;;;;;;5.28;3.45;;;;;;;28.06;37.92;100686.66;5284851;28;20027;-71
2022/08/16 17:23:20;;;;;;;3.92;3.22;;;;;;;28.06;37.47;100677.28;5285397;28;20183;-72
2022/08/16 17:25:51;;;;;;;6.50;3.58;;;;;;;27.81;37.91;100685.91;5285454;28;20467;-72
2022/08/16 17:28:23;;;;;;;4.00;3.30;;;;;;;27.90;37.63;100687.13;5285019;28;20028;-72
2022/08/16 17:30:54;;;;;;;6.78;4.57;;;;;;;27.83;37.71;100684.28;5286305;28;20574;-72
